createdAt,value
2022-11-10T00:01:43.417Z,99307.63
2022-11-10T00:04:30.437Z,99309.10
2022-11-10T00:07:17.202Z,99321.67
2022-11-10T00:10:05.461Z,99326.91
2022-11-10T00:12:52.383Z,99326.55
2022-11-10T00:16:05.077Z,99330.52
2022-11-10T00:18:52.339Z,99332.72
2022-11-10T00:21:38.924Z,99339.33
2022-11-10T00:24:26.592Z,99347.48
2022-11-10T00:27:15.081Z,99353.14
2022-11-10T00:30:02.157Z,99361.80
2022-11-10T00:32:49.042Z,99361.69
2022-11-10T00:35:36.077Z,99352.08
2022-11-10T00:38:22.731Z,99360.34
2022-11-10T00:41:09.399Z,99361.77
2022-11-10T00:43:56.112Z,99357.67
2022-11-10T00:46:43.059Z,99355.89
2022-11-10T00:49:29.823Z,99354.41
2022-11-10T00:52:16.618Z,99352.94
2022-11-10T00:55:03.517Z,99352.55
2022-11-10T00:57:50.084Z,99353.56
2022-11-10T01:00:37.248Z,99360.31
2022-11-10T01:03:24.322Z,99357.85
2022-11-10T01:06:14.179Z,99360.96
2022-11-10T01:09:00.885Z,99364.52
2022-11-10T01:11:47.547Z,99367.78
2022-11-10T01:14:34.075Z,99368.44
2022-11-10T01:17:21.144Z,99366.15
2022-11-10T01:20:09.276Z,99365.20
2022-11-10T01:22:56.254Z,99363.57
2022-11-10T01:25:43.533Z,99362.81
2022-11-10T01:28:30.912Z,99362.80
2022-11-10T01:31:21.094Z,99367.54
2022-11-10T01:34:09.329Z,99369.08
2022-11-10T01:36:56.508Z,99371.98
2022-11-10T01:39:43.208Z,99376.17
2022-11-10T01:43:00.169Z,99374.45
2022-11-10T01:45:46.856Z,99374.81
2022-11-10T01:48:51.318Z,99374.81
2022-11-10T01:51:56.597Z,99373.09
2022-11-10T01:54:47.693Z,99375.30
2022-11-10T01:57:36.125Z,99368.56
2022-11-10T02:00:24.249Z,99366.52
2022-11-10T02:03:24.797Z,99369.27
2022-11-10T02:06:14.176Z,99363.35
2022-11-10T02:09:01.354Z,99362.48
2022-11-10T02:11:53.925Z,99361.29
2022-11-10T02:14:42.425Z,99369.50
2022-11-10T02:17:29.619Z,99370.14
2022-11-10T02:20:21.269Z,99370.73
2022-11-10T02:23:30.449Z,99368.40
2022-11-10T02:26:28.029Z,99374.29
2022-11-10T02:29:15.541Z,99387.38
2022-11-10T02:32:02.767Z,99392.73
2022-11-10T02:34:50.838Z,99390.75
2022-11-10T02:37:37.686Z,99386.17
2022-11-10T02:40:24.737Z,99390.02
2022-11-10T02:43:14.305Z,99388.09
2022-11-10T02:46:01.462Z,99387.83
2022-11-10T02:48:48.383Z,99391.08
2022-11-10T02:51:35.489Z,99396.23
2022-11-10T02:54:22.529Z,99401.57
2022-11-10T02:57:09.637Z,99403.15
2022-11-10T02:59:56.404Z,99404.51
2022-11-10T03:02:43.612Z,99410.56
2022-11-10T03:05:31.981Z,99410.11
2022-11-10T03:08:18.944Z,99416.18
2022-11-10T03:11:06.646Z,99421.46
2022-11-10T03:14:01.595Z,99419.70
2022-11-10T03:16:49.408Z,99416.84
2022-11-10T03:19:36.436Z,99411.95
2022-11-10T03:22:23.305Z,99410.27
2022-11-10T03:25:12.070Z,99411.41
2022-11-10T03:27:58.881Z,99417.45
2022-11-10T03:30:45.673Z,99422.40
2022-11-10T03:33:33.149Z,99422.94
2022-11-10T03:36:20.249Z,99424.30
2022-11-10T03:39:07.224Z,99424.66
2022-11-10T03:41:54.017Z,99426.61
2022-11-10T03:44:40.862Z,99428.92
2022-11-10T03:47:27.965Z,99429.61
2022-11-10T03:50:16.367Z,99427.86
2022-11-10T03:53:03.456Z,99425.41
2022-11-10T03:55:50.394Z,99427.20
2022-11-10T03:58:37.335Z,99422.14
2022-11-10T04:01:24.289Z,99419.14
2022-11-10T04:04:32.086Z,99426.52
2022-11-10T04:07:38.056Z,99429.06
2022-11-10T04:10:25.093Z,99437.16
2022-11-10T04:13:31.633Z,99436.32
2022-11-10T04:16:18.430Z,99441.92
2022-11-10T04:19:05.217Z,99446.42
2022-11-10T04:21:53.665Z,99446.89
2022-11-10T04:24:40.841Z,99440.15
2022-11-10T04:27:27.557Z,99447.02
2022-11-10T04:30:14.353Z,99450.54
2022-11-10T04:33:01.296Z,99453.41
2022-11-10T04:35:48.320Z,99453.48
2022-11-10T04:38:35.372Z,99451.06
2022-11-10T04:41:24.248Z,99456.59
2022-11-10T04:44:11.571Z,99461.20
2022-11-10T04:46:58.363Z,99459.89
2022-11-10T04:49:45.368Z,99462.64
2022-11-10T04:52:32.565Z,99463.82
2022-11-10T04:55:19.839Z,99464.73
2022-11-10T04:58:07.024Z,99461.77
2022-11-10T05:00:54.560Z,99460.71
2022-11-10T05:03:43.479Z,99465.23
2022-11-10T05:06:30.369Z,99467.10
2022-11-10T05:09:17.645Z,99464.79
2022-11-10T05:12:04.669Z,99464.58
2022-11-10T05:14:51.697Z,99467.64
2022-11-10T05:17:38.805Z,99468.71
2022-11-10T05:20:27.108Z,99469.14
2022-11-10T05:23:32.968Z,99470.24
2022-11-10T05:26:19.868Z,99472.25
2022-11-10T05:29:06.792Z,99472.74
2022-11-10T05:31:53.732Z,99476.26
2022-11-10T05:34:40.689Z,99484.13
2022-11-10T05:37:27.700Z,99485.52
2022-11-10T05:40:15.299Z,99485.52
2022-11-10T05:43:02.405Z,99487.27
2022-11-10T05:45:49.680Z,99488.52
2022-11-10T05:48:36.953Z,99490.86
2022-11-10T05:51:24.195Z,99491.48
2022-11-10T05:54:11.245Z,99497.05
2022-11-10T05:56:58.093Z,99505.89
2022-11-10T05:59:44.984Z,99509.85
2022-11-10T06:02:32.384Z,99515.23
2022-11-10T06:05:21.461Z,99530.61
2022-11-10T06:08:09.165Z,99537.87
2022-11-10T06:10:55.921Z,99541.79
2022-11-10T06:13:42.696Z,99545.66
2022-11-10T06:16:29.375Z,99550.98
2022-11-10T06:19:16.202Z,99555.48
2022-11-10T06:22:07.501Z,99557.69
2022-11-10T06:24:55.106Z,99556.15
2022-11-10T06:27:45.046Z,99558.66
2022-11-10T06:30:35.273Z,99561.03
2022-11-10T06:33:22.659Z,99563.88
2022-11-10T06:36:09.917Z,99568.25
2022-11-10T06:38:56.751Z,99575.77
2022-11-10T06:41:43.615Z,99580.37
2022-11-10T06:44:30.318Z,99580.69
2022-11-10T06:47:18.210Z,99582.43
2022-11-10T06:50:05.303Z,99585.70
2022-11-10T06:52:56.981Z,99590.15
2022-11-10T06:55:44.300Z,99597.75
2022-11-10T06:58:31.248Z,99602.20
2022-11-10T07:01:22.286Z,99605.48
2022-11-10T07:04:24.842Z,99609.45
2022-11-10T07:07:12.274Z,99610.58
2022-11-10T07:10:04.129Z,99613.65
2022-11-10T07:12:58.196Z,99618.73
2022-11-10T07:15:44.961Z,99622.62
2022-11-10T07:18:31.955Z,99625.96
2022-11-10T07:21:19.129Z,99626.86
2022-11-10T07:24:06.482Z,99629.60
2022-11-10T07:26:53.104Z,99625.87
2022-11-10T07:29:40.036Z,99627.09
2022-11-10T07:32:27.014Z,99635.74
2022-11-10T07:35:13.870Z,99643.40
2022-11-10T07:38:09.579Z,99647.06
2022-11-10T07:40:56.742Z,99651.15
2022-11-10T07:43:43.843Z,99657.27
2022-11-10T07:46:30.827Z,99659.35
2022-11-10T07:49:17.665Z,99662.90
2022-11-10T07:52:04.757Z,99661.20
2022-11-10T07:54:51.668Z,99667.06
2022-11-10T07:57:38.673Z,99666.69
2022-11-10T08:00:26.205Z,99668.30
2022-11-10T08:03:19.630Z,99672.23
2022-11-10T08:06:07.109Z,99671.19
2022-11-10T08:08:53.774Z,99671.72
2022-11-10T08:11:40.788Z,99673.66
2022-11-10T08:14:27.528Z,99677.90
2022-11-10T08:17:14.766Z,99685.13
2022-11-10T08:20:01.418Z,99689.16
2022-11-10T08:22:56.241Z,99696.14
2022-11-10T08:25:43.013Z,99700.40
2022-11-10T08:28:29.900Z,99704.86
2022-11-10T08:31:17.281Z,99712.84
2022-11-10T08:34:04.885Z,99711.27
2022-11-10T08:36:54.708Z,99713.90
2022-11-10T08:39:41.477Z,99714.81
2022-11-10T08:42:28.236Z,99720.80
2022-11-10T08:45:15.862Z,99726.42
2022-11-10T08:48:13.741Z,99734.48
2022-11-10T08:51:01.567Z,99740.29
2022-11-10T08:53:48.605Z,99745.55
2022-11-10T08:56:35.364Z,99747.57
2022-11-10T08:59:22.097Z,99751.34
2022-11-10T09:02:12.862Z,99756.82
2022-11-10T09:04:59.692Z,99759.71
2022-11-10T09:07:47.894Z,99764.48
2022-11-10T09:10:37.018Z,99766.49
2022-11-10T09:13:29.079Z,99767.95
2022-11-10T09:16:16.767Z,99769.86
2022-11-10T09:19:03.912Z,99773.89
2022-11-10T09:21:50.912Z,99778.91
2022-11-10T09:24:37.728Z,99776.31
2022-11-10T09:27:24.679Z,99781.10
2022-11-10T09:30:17.369Z,99782.97
2022-11-10T09:33:05.245Z,99784.40
2022-11-10T09:36:00.602Z,99784.26
2022-11-10T09:38:47.321Z,99779.98
2022-11-10T09:41:38.481Z,99779.58
2022-11-10T09:44:34.113Z,99781.08
2022-11-10T09:47:56.377Z,99786.71
2022-11-10T09:51:03.796Z,99793.67
2022-11-10T09:53:57.031Z,99801.09
2022-11-10T09:56:43.954Z,99801.34
2022-11-10T09:59:33.909Z,99802.86
2022-11-10T10:02:23.492Z,99806.38
2022-11-10T10:05:32.220Z,99804.63
2022-11-10T10:08:28.814Z,99808.31
2022-11-10T10:11:32.962Z,99808.23
2022-11-10T10:14:31.660Z,99811.34
2022-11-10T10:17:26.808Z,99812.06
2022-11-10T10:20:16.501Z,99814.65
2022-11-10T10:24:02.593Z,99816.30
2022-11-10T10:27:00.130Z,99821.88
2022-11-10T10:29:51.509Z,99822.25
2022-11-10T10:32:38.285Z,99824.80
2022-11-10T10:35:25.620Z,99827.39
2022-11-10T10:38:18.375Z,99821.20
2022-11-10T10:41:24.229Z,99819.61
2022-11-10T10:44:17.649Z,99820.96
2022-11-10T10:47:04.960Z,99823.67
2022-11-10T10:49:51.925Z,99823.61
2022-11-10T10:52:38.710Z,99822.98
2022-11-10T10:55:29.434Z,99820.84
2022-11-10T10:58:27.156Z,99822.77
2022-11-10T11:01:16.920Z,99827.77
2022-11-10T11:04:44.262Z,99832.13
2022-11-10T11:07:31.016Z,99839.02
2022-11-10T11:10:19.052Z,99840.13
2022-11-10T11:13:27.737Z,99842.04
2022-11-10T11:16:14.524Z,99844.45
2022-11-10T11:19:01.733Z,99844.30
2022-11-10T11:21:53.893Z,99851.65
2022-11-10T11:24:51.479Z,99853.33
2022-11-10T11:27:53.649Z,99851.86
2022-11-10T11:31:10.194Z,99855.80
2022-11-10T11:34:31.959Z,99853.02
2022-11-10T11:37:34.953Z,99852.03
2022-11-10T11:40:53.975Z,99849.83
2022-11-10T11:44:02.056Z,99854.68
2022-11-10T11:47:04.943Z,99858.56
2022-11-10T11:50:15.839Z,99861.20
2022-11-10T11:53:16.265Z,99863.14
2022-11-10T11:56:20.213Z,99865.53
2022-11-10T11:59:13.165Z,99867.21
2022-11-10T12:02:15.386Z,99869.17
2022-11-10T12:05:25.690Z,99870.04
2022-11-10T12:08:27.097Z,99868.67
2022-11-10T12:11:16.974Z,99871.80
2022-11-10T12:14:14.980Z,99872.62
2022-11-10T12:17:35.202Z,99876.25
2022-11-10T12:20:54.163Z,99870.42
2022-11-10T12:23:53.387Z,99867.09
2022-11-10T12:26:47.813Z,99866.08
2022-11-10T12:29:40.025Z,99867.26
2022-11-10T12:32:56.038Z,99869.68
2022-11-10T12:35:45.894Z,99880.80
2022-11-10T12:39:00.108Z,99886.30
2022-11-10T12:41:56.088Z,99895.58
2022-11-10T12:45:05.851Z,99892.84
2022-11-10T12:47:54.484Z,99896.47
2022-11-10T12:50:59.673Z,99900.36
2022-11-10T12:53:48.254Z,99901.44
2022-11-10T12:56:43.179Z,99898.50
2022-11-10T12:59:39.548Z,99899.47
2022-11-10T13:02:44.338Z,99905.70
2022-11-10T13:05:36.790Z,99912.96
2022-11-10T13:08:24.947Z,99918.54
2022-11-10T13:11:12.142Z,99922.08
2022-11-10T13:14:00.831Z,99925.81
2022-11-10T13:16:54.204Z,99932.11
2022-11-10T13:19:40.901Z,99938.70
2022-11-10T13:22:30.856Z,99941.11
2022-11-10T13:25:36.598Z,99938.20
2022-11-10T13:28:48.284Z,99935.91
2022-11-10T13:31:39.696Z,99938.10
2022-11-10T13:34:37.190Z,99947.77
2022-11-10T13:37:29.965Z,99945.65
2022-11-10T13:40:25.806Z,99953.40
2022-11-10T13:43:19.793Z,99956.85
2022-11-10T13:46:07.226Z,99960.31
2022-11-10T13:49:43.084Z,99966.95
2022-11-10T13:52:56.728Z,99968.23
2022-11-10T13:55:51.232Z,99970.90
2022-11-10T13:58:44.036Z,99975.02
2022-11-10T14:01:30.865Z,99985.04
2022-11-10T14:04:35.981Z,99987.54
2022-11-10T14:07:23.453Z,99991.52
2022-11-10T14:10:18.859Z,99996.96
2022-11-10T14:13:12.508Z,99998.02
2022-11-10T14:15:59.932Z,99998.23
2022-11-10T14:19:00.715Z,99990.20
2022-11-10T14:21:58.376Z,99996.55
2022-11-10T14:25:01.893Z,99999.29
2022-11-10T14:27:52.527Z,100001.03
2022-11-10T14:30:51.605Z,100002.42
2022-11-10T14:33:38.841Z,100007.80
2022-11-10T14:36:25.897Z,100013.09
2022-11-10T14:39:16.357Z,100012.56
2022-11-10T14:42:05.843Z,100013.54
2022-11-10T14:45:15.669Z,100021.30
2022-11-10T14:48:02.336Z,100031.23
2022-11-10T14:50:50.613Z,100032.21
2022-11-10T14:53:40.604Z,100039.02
2022-11-10T14:56:31.946Z,100040.64
2022-11-10T14:59:20.373Z,100041.72
2022-11-10T15:02:13.885Z,100046.27
2022-11-10T15:05:02.135Z,100045.16
2022-11-10T15:07:53.910Z,100050.13
2022-11-10T15:10:40.790Z,100053.98
2022-11-10T15:13:27.629Z,100057.23
2022-11-10T15:16:59.269Z,100061.19
2022-11-10T15:19:46.353Z,100069.18
2022-11-10T15:22:37.141Z,100071.86
2022-11-10T15:25:31.189Z,100074.88
2022-11-10T15:28:46.487Z,100078.43
2022-11-10T15:31:34.270Z,100087.58
2022-11-10T15:34:44.508Z,100093.63
2022-11-10T15:37:31.661Z,100095.86
2022-11-10T15:40:34.496Z,100099.04
2022-11-10T15:43:30.375Z,100104.59
2022-11-10T15:46:24.077Z,100103.05
2022-11-10T15:49:33.422Z,100104.34
2022-11-10T15:52:22.311Z,100107.09
2022-11-10T15:55:23.262Z,100106.95
2022-11-10T15:58:14.381Z,100113.66
2022-11-10T16:01:01.951Z,100120.86
2022-11-10T16:03:48.668Z,100125.17
2022-11-10T16:06:35.728Z,100125.61
2022-11-10T16:09:22.796Z,100128.28
2022-11-10T16:12:18.676Z,100128.60
2022-11-10T16:15:06.767Z,100134.96
2022-11-10T16:17:53.610Z,100140.11
2022-11-10T16:20:40.810Z,100140.13
2022-11-10T16:23:27.933Z,100144.52
2022-11-10T16:26:23.930Z,100150.02
2022-11-10T16:29:16.016Z,100150.24
2022-11-10T16:32:03.405Z,100151.15
2022-11-10T16:34:50.114Z,100156.30
2022-11-10T16:37:37.180Z,100156.89
2022-11-10T16:40:24.997Z,100161.73
2022-11-10T16:43:18.932Z,100165.15
2022-11-10T16:46:23.874Z,100168.78
2022-11-10T16:49:27.706Z,100177.71
2022-11-10T16:52:16.313Z,100180.50
2022-11-10T16:55:04.084Z,100180.85
2022-11-10T16:57:51.297Z,100184.15
2022-11-10T17:00:39.573Z,100189.73
2022-11-10T17:03:38.183Z,100196.08
2022-11-10T17:06:27.740Z,100201.73
2022-11-10T17:09:19.416Z,100206.77
2022-11-10T17:12:06.537Z,100213.93
2022-11-10T17:14:53.233Z,100214.13
2022-11-10T17:17:41.148Z,100216.16
2022-11-10T17:20:38.031Z,100220.70
2022-11-10T17:23:26.499Z,100233.70
2022-11-10T17:26:16.580Z,100232.80
2022-11-10T17:29:03.567Z,100234.96
2022-11-10T17:31:50.606Z,100242.30
2022-11-10T17:34:37.887Z,100253.46
2022-11-10T17:37:24.929Z,100262.29
2022-11-10T17:40:22.782Z,100266.71
2022-11-10T17:43:13.798Z,100267.95
2022-11-10T17:46:00.652Z,100272.05
2022-11-10T17:48:48.038Z,100274.23
2022-11-10T17:51:36.140Z,100273.05
2022-11-10T17:54:23.397Z,100273.80
2022-11-10T17:57:10.810Z,100276.50
2022-11-10T17:59:57.979Z,100280.29
2022-11-10T18:02:48.899Z,100287.56
2022-11-10T18:05:39.601Z,100292.02
2022-11-10T18:08:26.292Z,100292.93
2022-11-10T18:11:16.345Z,100293.45
2022-11-10T18:14:03.539Z,100291.67
2022-11-10T18:16:50.649Z,100292.35
2022-11-10T18:19:37.856Z,100289.36
2022-11-10T18:22:25.150Z,100289.36
2022-11-10T18:25:11.769Z,100294.02
2022-11-10T18:27:58.739Z,100300.45
2022-11-10T18:30:45.642Z,100300.21
2022-11-10T18:33:32.749Z,100302.84
2022-11-10T18:36:19.525Z,100303.27
2022-11-10T18:39:06.259Z,100301.19
2022-11-10T18:41:53.386Z,100300.38
2022-11-10T18:44:43.618Z,100302.23
2022-11-10T18:47:32.052Z,100309.95
2022-11-10T18:50:19.605Z,100308.83
2022-11-10T18:53:06.527Z,100311.95
2022-11-10T18:55:54.999Z,100319.48
2022-11-10T18:58:42.699Z,100325.41
2022-11-10T19:01:29.789Z,100326.20
2022-11-10T19:04:17.011Z,100327.56
2022-11-10T19:07:03.820Z,100331.05
2022-11-10T19:09:50.654Z,100332.77
2022-11-10T19:12:37.610Z,100331.28
2022-11-10T19:15:24.460Z,100334.79
2022-11-10T19:18:11.287Z,100336.00
2022-11-10T19:20:58.021Z,100338.98
2022-11-10T19:23:44.677Z,100340.15
2022-11-10T19:26:32.885Z,100344.35
2022-11-10T19:29:19.748Z,100343.40
2022-11-10T19:32:06.935Z,100344.05
2022-11-10T19:34:54.048Z,100345.41
2022-11-10T19:37:40.797Z,100346.94
2022-11-10T19:40:27.444Z,100349.70
2022-11-10T19:43:14.120Z,100350.73
2022-11-10T19:46:03.244Z,100353.76
2022-11-10T19:48:50.964Z,100360.30
2022-11-10T19:51:37.824Z,100361.30
2022-11-10T19:54:24.717Z,100361.60
2022-11-10T19:57:11.497Z,100362.16
2022-11-10T19:59:58.273Z,100363.34
2022-11-10T20:02:47.471Z,100363.62
2022-11-10T20:05:34.496Z,100370.23
2022-11-10T20:08:21.295Z,100373.33
2022-11-10T20:11:10.603Z,100379.95
2022-11-10T20:14:02.089Z,100377.55
2022-11-10T20:16:49.159Z,100372.70
2022-11-10T20:19:40.903Z,100374.48
2022-11-10T20:22:27.948Z,100385.67
2022-11-10T20:25:15.122Z,100390.98
2022-11-10T20:28:03.566Z,100400.05
2022-11-10T20:30:50.632Z,100410.59
2022-11-10T20:33:38.118Z,100417.23
2022-11-10T20:36:28.889Z,100422.84
2022-11-10T20:39:15.606Z,100424.23
2022-11-10T20:42:03.751Z,100426.65
2022-11-10T20:44:50.482Z,100432.27
2022-11-10T20:47:37.724Z,100433.48
2022-11-10T20:50:24.905Z,100431.83
2022-11-10T20:53:11.982Z,100432.95
2022-11-10T20:56:02.116Z,100437.63
2022-11-10T20:58:49.495Z,100446.52
2022-11-10T21:01:37.723Z,100448.38
2022-11-10T21:04:25.215Z,100452.49
2022-11-10T21:07:12.270Z,100450.06
2022-11-10T21:09:59.438Z,100446.58
2022-11-10T21:12:49.279Z,100446.96
2022-11-10T21:15:39.842Z,100445.36
2022-11-10T21:18:33.112Z,100440.07
2022-11-10T21:21:23.399Z,100443.93
2022-11-10T21:24:10.893Z,100453.25
2022-11-10T21:26:58.854Z,100457.59
2022-11-10T21:29:45.589Z,100460.66
2022-11-10T21:32:32.382Z,100459.51
2022-11-10T21:35:19.489Z,100451.48
2022-11-10T21:38:06.419Z,100452.08
2022-11-10T21:40:53.491Z,100458.94
2022-11-10T21:43:40.420Z,100464.56
2022-11-10T21:46:27.413Z,100466.82
2022-11-10T21:49:14.640Z,100463.46
2022-11-10T21:52:01.292Z,100463.25
2022-11-10T21:54:48.325Z,100466.33
2022-11-10T21:57:35.119Z,100468.39
2022-11-10T22:00:23.985Z,100467.45
2022-11-10T22:03:10.709Z,100468.35
2022-11-10T22:06:12.133Z,100467.45
2022-11-10T22:08:58.985Z,100471.66
2022-11-10T22:12:03.992Z,100467.75
2022-11-10T22:15:09.027Z,100466.27
2022-11-10T22:18:14.847Z,100469.23
2022-11-10T22:21:02.532Z,100478.16
2022-11-10T22:24:07.832Z,100478.77
2022-11-10T22:26:57.452Z,100481.85
2022-11-10T22:29:44.163Z,100485.13
2022-11-10T22:32:30.860Z,100486.08
2022-11-10T22:35:35.930Z,100487.23
2022-11-10T22:38:22.460Z,100486.96
2022-11-10T22:41:32.454Z,100484.10
2022-11-10T22:44:23.777Z,100482.81
2022-11-10T22:47:11.659Z,100484.36
2022-11-10T22:49:59.520Z,100486.10
2022-11-10T22:52:46.084Z,100486.21
2022-11-10T22:55:32.874Z,100491.39
2022-11-10T22:58:20.044Z,100493.39
2022-11-10T23:01:09.168Z,100498.64
2022-11-10T23:04:00.524Z,100503.02
2022-11-10T23:06:47.247Z,100507.71
2022-11-10T23:09:34.819Z,100504.34
2022-11-10T23:12:21.808Z,100500.11
2022-11-10T23:15:08.913Z,100500.91
2022-11-10T23:17:55.820Z,100499.98
2022-11-10T23:20:42.644Z,100504.73
2022-11-10T23:23:33.368Z,100505.10
2022-11-10T23:26:30.101Z,100510.48
2022-11-10T23:29:17.024Z,100513.08
2022-11-10T23:32:04.007Z,100511.44
2022-11-10T23:34:50.906Z,100508.18
2022-11-10T23:37:37.609Z,100504.84
2022-11-10T23:40:24.408Z,100505.73
2022-11-10T23:43:10.855Z,100503.77
2022-11-10T23:46:07.167Z,100503.58
2022-11-10T23:48:54.120Z,100506.83
2022-11-10T23:51:40.706Z,100516.98
2022-11-10T23:54:27.625Z,100520.71
2022-11-10T23:57:14.035Z,100517.39
